London-Corbin Arpt-Magee Field (LOZ)

 

Airport Diagram
No Airport Diagram Available
Current Weather/Forecast (VFR Conditions)
METAR KLOZ 071253Z AUTO 32009KT 10SM CLR 10/05 A3006 RMK AO2 SLP176 T01000050
TAF KLOZ 071120Z 0712/0812 31008KT P6SM SCT035 FM080400 VRB03KT P6SM VCSH BKN060 FM080600 VRB03KT P6SM BKN045 WS020/28045KT FM081100 00000KT P6SM FEW200

Airport Information

All Charts
General
Chart Name View
TAKEOFF MINIMUMS
ALTERNATE MINIMUMS

Approaches
Chart Name Download
ILS OR LOC RWY 06
RNAV (GPS) RWY 06
RNAV (GPS) RWY 24
VOR RWY 06


Airport Statistics
Departures Arrivals Local
All Collected Stats since June 2016: 40 37 3
2021 Stats: 11 5 1
May Stats: 0 0 0

Inbound Traffic (Arrivals) - 0

No inbound traffic.


Outbound Traffic (Departures) - 0

No outbound traffic.


Local Traffic (Pattern) - 0

No local traffic.